Beruri, Brazil
Current Conditions -  °F | °C
As of 3:00 PM on Friday 31 Oct 2014 (Local Time) from SBMN Reporting Station
Scattered Clouds Scattered Clouds  
Wind Chill: 93°   Ceiling: Unl
Heat Index: 101°   Visibility: 6mi
Dew Point: 72°   Wind: 6mph
Humidity: 49%   Direction: 130°SE
Pressure: 29.74"   Gusts: NA
Location:  3.9°S, 61.37°W
Report Text: SBMN 311900Z 13005KT 9999 SCT018 FEW020TCU 34/22 Q1007
Loading
Personal Weather Stations






























Interactive Weather Map
Tropical Storm Tracking
New forecast layout! Learn more

10-Day Weather Forecast

Advertisements
Track Severe Weather on mobile